Startpagina
METAR-TAF:

METAR-TAF

Vliegvelden :

Yaoundé, Kameroen

Luchthaven Yaoundé Nsimalen Internationaal

breedte: 03-50N, lengte: 011-31E, hoogte: 751 m

Actueel weer

Dit bericht is 1 uur en het 7 minuten geleden gemaakt, om 02:00 UTC
Wind 2 kt uit het zuidzuidwesten
Temperatuur 21°C
Vochtigheid 100%
Druk 1014 hPa
Zicht: 6000 m
Weinig wolken op 300 ft
Gebroken wolken op 600 ft

METAR: FKYS 240200Z 20002KT 6000 FEW003 BKN006 21/21 Q1014 NOSIG

Tijdstip: 04:07 (03:07 UTC)

Verwachting

Dit bericht is 4 uur en het 7 minuten geleden gemaakt, om 23:00 UTC
Verwachting geldig van 24 om 00 UTC tot 24 om 24 UTC
Wind 5 kt uit het westnoordwesten
Zicht: 6000 m
Weinig wolken op 300 ft
Gebroken wolken op 600 ft
Kans 30% :
Tijdelijke
van 24 om 03 UTC tot 24 om 07 UTC
Zicht: 3000 m
nevel
Wijzigt naar
van 24 om 09 UTC tot 24 om 11 UTC
Gebroken wolken op 1600 ft

TAF: FKYS 232300Z 2400/2424 29005KT 6000 FEW003 BKN006 PROB30 TEMPO 2403/2407 3000 BR BECMG 2409/2411 BKN016

Waarnemingen en weersverwachtingen van meer dan 4000 vliegvelden (METAR en TAF).

De beschikbare stations zijn de gele en rode punten op de kaart.

Ga met uw muis naar het station om de naam te zien.

Klik dan om waarnemingen en weersverwachtingen te zien.

kaart wijzigen: klik op de groene knoppen met een zwart kruis om in te zoomen, op de groene knop met een streepje om uit te zoomen of op de groene pijlen voor aangrenzende kaarten.


METAR-TAF: